createdAt,value
2022-10-14T00:02:02.352Z,100772.61
2022-10-14T00:04:44.142Z,100773.50
2022-10-14T00:07:25.834Z,100768.90
2022-10-14T00:10:08.040Z,100767.52
2022-10-14T00:12:50.754Z,100769.29
2022-10-14T00:15:32.749Z,100767.48
2022-10-14T00:18:14.338Z,100766.06
2022-10-14T00:21:01.317Z,100764.98
2022-10-14T00:23:44.376Z,100759.58
2022-10-14T00:26:29.857Z,100760.16
2022-10-14T00:29:15.491Z,100761.45
2022-10-14T00:31:57.129Z,100760.89
2022-10-14T00:34:38.921Z,100758.27
2022-10-14T00:37:20.925Z,100753.75
2022-10-14T00:40:04.248Z,100753.16
2022-10-14T00:42:45.941Z,100754.66
2022-10-14T00:45:27.733Z,100752.72
2022-10-14T00:48:10.243Z,100748.40
2022-10-14T00:50:56.646Z,100743.23
2022-10-14T00:53:42.433Z,100743.68
2022-10-14T00:56:28.936Z,100741.58
2022-10-14T00:59:10.934Z,100739.23
2022-10-14T01:01:53.034Z,100739.52
2022-10-14T01:04:39.538Z,100736.05
2022-10-14T01:07:40.787Z,100735.16
2022-10-14T01:10:41.729Z,100734.73
2022-10-14T01:13:31.482Z,100736.73
2022-10-14T01:16:36.958Z,100733.86
2022-10-14T01:19:51.725Z,100731.02
2022-10-14T01:22:41.101Z,100728.05
2022-10-14T01:25:53.609Z,100728.16
2022-10-14T01:28:52.021Z,100730.20
2022-10-14T01:31:40.227Z,100730.11
2022-10-14T01:34:32.576Z,100728.05
2022-10-14T01:37:19.653Z,100724.32
2022-10-14T01:40:08.608Z,100730.45
2022-10-14T01:42:53.215Z,100729.77
2022-10-14T01:45:38.081Z,100724.77
2022-10-14T01:48:24.071Z,100728.88
2022-10-14T01:51:13.443Z,100721.74
2022-10-14T01:54:00.253Z,100717.16
2022-10-14T01:56:45.192Z,100712.16
2022-10-14T01:59:29.676Z,100715.88
2022-10-14T02:02:13.403Z,100713.66
2022-10-14T02:04:56.045Z,100710.78
2022-10-14T02:07:42.945Z,100713.94
2022-10-14T02:10:38.148Z,100718.46
2022-10-14T02:14:03.565Z,100711.23
2022-10-14T02:17:10.247Z,100715.10
2022-10-14T02:20:13.437Z,100717.19
2022-10-14T02:23:00.216Z,100719.16
2022-10-14T02:25:44.883Z,100719.10
2022-10-14T02:28:30.039Z,100720.71
2022-10-14T02:31:15.552Z,100719.48
2022-10-14T02:34:02.781Z,100718.05
2022-10-14T02:36:46.083Z,100714.63
2022-10-14T02:39:36.300Z,100710.64
2022-10-14T02:42:19.212Z,100711.13
2022-10-14T02:45:01.729Z,100712.27
2022-10-14T02:47:43.421Z,100708.56
2022-10-14T02:50:25.047Z,100704.63
2022-10-14T02:53:06.802Z,100697.83
2022-10-14T02:55:48.495Z,100694.24
2022-10-14T02:58:30.184Z,100690.27
2022-10-14T03:01:11.874Z,100686.65
2022-10-14T03:03:53.873Z,100683.98
2022-10-14T03:06:37.099Z,100687.84
2022-10-14T03:09:19.918Z,100686.17
2022-10-14T03:12:02.123Z,100683.30
2022-10-14T03:14:44.220Z,100684.83
2022-10-14T03:17:26.886Z,100682.50
2022-10-14T03:20:10.035Z,100684.59
2022-10-14T03:22:57.486Z,100674.93
2022-10-14T03:25:39.380Z,100675.91
2022-10-14T03:28:28.901Z,100682.13
2022-10-14T03:31:17.201Z,100674.35
2022-10-14T03:34:37.087Z,100681.73
2022-10-14T03:37:21.852Z,100687.95
2022-10-14T03:40:05.384Z,100685.45
2022-10-14T03:42:48.408Z,100689.29
2022-10-14T03:45:30.674Z,100688.02
2022-10-14T03:48:12.610Z,100693.85
2022-10-14T03:50:55.119Z,100687.59
2022-10-14T03:53:37.628Z,100690.70
2022-10-14T03:56:19.626Z,100692.80
2022-10-14T03:59:02.034Z,100702.73
2022-10-14T04:01:43.996Z,100699.32
2022-10-14T04:04:37.704Z,100703.23
2022-10-14T04:07:19.600Z,100700.89
2022-10-14T04:10:07.230Z,100701.02
2022-10-14T04:12:50.970Z,100697.52
2022-10-14T04:15:45.357Z,100697.63
2022-10-14T04:18:35.025Z,100692.06
2022-10-14T04:21:17.247Z,100693.34
2022-10-14T04:24:07.375Z,100694.49
2022-10-14T04:26:57.317Z,100692.02
2022-10-14T04:29:50.472Z,100690.61
2022-10-14T04:32:38.587Z,100683.92
2022-10-14T04:35:21.123Z,100680.43
2022-10-14T04:38:04.663Z,100678.18
2022-10-14T04:40:46.349Z,100672.20
2022-10-14T04:43:28.348Z,100668.67
2022-10-14T04:46:10.043Z,100667.40
2022-10-14T04:48:51.933Z,100665.48
2022-10-14T04:51:34.853Z,100669.60
2022-10-14T04:54:35.128Z,100667.35
2022-10-14T04:57:17.345Z,100665.84
2022-10-14T05:00:02.265Z,100663.65
2022-10-14T05:03:01.566Z,100663.40
2022-10-14T05:05:47.647Z,100664.59
2022-10-14T05:08:29.543Z,100667.44
2022-10-14T05:11:14.407Z,100665.84
2022-10-14T05:14:01.935Z,100667.48
2022-10-14T05:16:44.652Z,100666.77
2022-10-14T05:19:26.341Z,100673.47
2022-10-14T05:22:08.238Z,100677.13
2022-10-14T05:24:54.638Z,100676.41
2022-10-14T05:27:36.640Z,100674.81
2022-10-14T05:30:19.351Z,100669.61
2022-10-14T05:33:03.807Z,100670.37
2022-10-14T05:36:00.235Z,100665.80
2022-10-14T05:38:45.110Z,100664.85
2022-10-14T05:41:26.902Z,100665.90
2022-10-14T05:44:11.255Z,100666.64
2022-10-14T05:46:53.254Z,100666.86
2022-10-14T05:49:34.948Z,100665.09
2022-10-14T05:52:17.766Z,100662.94
2022-10-14T05:54:59.760Z,100661.67
2022-10-14T05:57:44.522Z,100661.89
2022-10-14T06:00:28.553Z,100669.31
2022-10-14T06:03:13.560Z,100663.16
2022-10-14T06:05:56.354Z,100666.94
2022-10-14T06:08:38.044Z,100663.28
2022-10-14T06:27:42.007Z,100674.61
2022-10-14T06:30:23.701Z,100682.86
2022-10-14T06:33:05.390Z,100680.52
2022-10-14T06:35:47.800Z,100677.45
2022-10-14T06:38:29.420Z,100678.30
2022-10-14T06:41:11.281Z,100677.11
2022-10-14T06:43:53.488Z,100681.31
2022-10-14T06:46:35.095Z,100680.57
2022-10-14T06:49:16.762Z,100681.95
2022-10-14T06:51:58.455Z,100678.63
2022-10-14T06:54:42.574Z,100687.20
2022-10-14T06:57:26.550Z,100682.28
2022-10-14T07:00:09.166Z,100680.74
2022-10-14T07:02:52.080Z,100683.04
2022-10-14T07:05:34.076Z,100682.48
2022-10-14T07:12:26.008Z,100683.69
2022-10-14T07:15:08.619Z,100687.44
2022-10-14T07:17:50.338Z,100686.18
2022-10-14T07:20:34.052Z,100688.17
2022-10-14T07:23:15.767Z,100692.91
2022-10-14T07:25:58.893Z,100689.17
2022-10-14T07:28:41.564Z,100691.73
2022-10-14T07:31:23.300Z,100686.57
2022-10-14T07:34:05.296Z,100682.17
2022-10-14T07:36:47.090Z,100675.46
2022-10-14T07:39:29.323Z,100672.76
2022-10-14T07:42:11.148Z,100675.19
2022-10-14T07:44:55.279Z,100675.94
2022-10-14T07:47:37.163Z,100679.58
2022-10-14T07:50:19.847Z,100678.24
2022-10-14T07:53:01.781Z,100678.73
2022-10-14T07:55:52.145Z,100677.89
2022-10-14T07:58:33.826Z,100680.64
2022-10-14T08:01:16.792Z,100681.02
2022-10-14T08:03:58.744Z,100682.11
2022-10-14T08:06:41.050Z,100679.23
2022-10-14T08:09:23.333Z,100683.11
2022-10-14T08:12:05.355Z,100682.95
2022-10-14T08:14:47.249Z,100683.73
2022-10-14T08:17:29.042Z,100679.61
2022-10-14T08:20:11.405Z,100686.39
2022-10-14T08:22:53.346Z,100680.17
2022-10-14T08:25:36.788Z,100679.34
2022-10-14T08:28:18.558Z,100679.11
2022-10-14T08:31:00.366Z,100679.66
2022-10-14T08:33:42.259Z,100683.92
2022-10-14T08:36:24.462Z,100681.52
2022-10-14T08:39:07.425Z,100676.70
2022-10-14T08:42:21.082Z,100675.94
2022-10-14T08:45:09.202Z,100674.66
2022-10-14T08:47:55.083Z,100668.67
2022-10-14T08:50:44.459Z,100671.09
2022-10-14T08:53:48.746Z,100666.16
2022-10-14T08:56:30.437Z,100662.89
2022-10-14T08:59:19.708Z,100662.63
2022-10-14T09:02:12.028Z,100663.42
2022-10-14T09:04:53.944Z,100663.06
2022-10-14T09:07:37.271Z,100659.84
2022-10-14T09:10:30.329Z,100660.40
2022-10-14T09:13:26.360Z,100659.75
2022-10-14T09:16:17.483Z,100663.68
2022-10-14T09:19:06.819Z,100665.34
2022-10-14T09:21:53.658Z,100668.85
2022-10-14T09:24:36.261Z,100666.58
2022-10-14T09:27:23.632Z,100668.48
2022-10-14T09:30:10.600Z,100668.55
2022-10-14T09:32:55.773Z,100667.61
2022-10-14T09:35:42.143Z,100670.28
2022-10-14T09:38:24.684Z,100668.68
2022-10-14T09:41:15.489Z,100671.64
2022-10-14T09:44:23.702Z,100671.18
2022-10-14T09:47:09.449Z,100673.05
2022-10-14T09:49:54.456Z,100668.36
2022-10-14T09:52:38.297Z,100669.90
2022-10-14T09:55:24.525Z,100667.61
2022-10-14T09:58:14.372Z,100664.27
2022-10-14T10:01:00.779Z,100665.92
2022-10-14T10:03:42.788Z,100667.41
2022-10-14T10:06:27.023Z,100668.88
2022-10-14T10:09:18.447Z,100663.55
2022-10-14T10:12:00.446Z,100659.75
2022-10-14T10:14:42.069Z,100665.84
2022-10-14T10:17:24.177Z,100661.76
2022-10-14T10:20:28.793Z,100661.11
2022-10-14T10:23:37.230Z,100661.26
2022-10-14T10:26:26.255Z,100658.33
2022-10-14T10:29:34.660Z,100655.50
2022-10-14T10:32:30.925Z,100651.70
2022-10-14T10:35:18.632Z,100646.77
2022-10-14T10:38:10.173Z,100646.15
2022-10-14T10:41:23.789Z,100638.91
2022-10-14T10:59:37.192Z,100638.46
2022-10-14T11:02:45.010Z,100634.23
2022-10-14T11:05:39.000Z,100631.45
2022-10-14T11:09:11.985Z,100629.98
2022-10-14T11:12:23.357Z,100627.95
2022-10-14T11:18:45.646Z,100624.72
2022-10-14T11:21:43.201Z,100614.49
2022-10-14T11:24:33.897Z,100612.27
2022-10-14T11:28:00.757Z,100607.86
2022-10-14T11:30:59.023Z,100607.13
2022-10-14T11:34:17.165Z,100605.58
2022-10-14T11:37:23.941Z,100606.40
2022-10-14T11:40:37.066Z,100604.47
2022-10-14T11:43:48.256Z,100601.98
2022-10-14T11:46:35.989Z,100599.11
2022-10-14T11:49:37.533Z,100600.25
2022-10-14T11:52:32.020Z,100596.23
2022-10-14T11:55:24.238Z,100597.33
2022-10-14T11:58:16.199Z,100596.14
2022-10-14T12:01:05.791Z,100594.32
2022-10-14T12:04:12.555Z,100590.85
2022-10-14T12:07:06.053Z,100591.39
2022-10-14T12:09:57.425Z,100588.95
2022-10-14T12:12:42.720Z,100586.11
2022-10-14T12:15:27.458Z,100585.87
2022-10-14T12:18:12.257Z,100587.13
2022-10-14T12:21:12.664Z,100584.00
2022-10-14T12:24:03.241Z,100586.39
2022-10-14T12:27:00.737Z,100583.62
2022-10-14T12:29:47.936Z,100584.44
2022-10-14T12:32:31.298Z,100578.92
2022-10-14T12:35:45.541Z,100574.70
2022-10-14T12:38:29.440Z,100571.35
2022-10-14T12:41:39.341Z,100567.46
2022-10-14T12:56:39.148Z,100561.76
2022-10-14T12:59:27.086Z,100561.45
2022-10-14T13:02:32.636Z,100558.77
2022-10-14T13:05:37.584Z,100556.23
2022-10-14T13:08:25.882Z,100554.79
2022-10-14T13:11:13.424Z,100552.43
2022-10-14T13:14:00.643Z,100554.90
2022-10-14T13:16:45.432Z,100551.80
2022-10-14T13:19:33.470Z,100549.52
2022-10-14T13:22:31.313Z,100546.42
2022-10-14T13:25:20.027Z,100546.78
2022-10-14T13:28:04.553Z,100542.46
2022-10-14T13:31:03.771Z,100538.50
2022-10-14T13:33:55.646Z,100536.61
2022-10-14T13:36:57.547Z,100534.20
2022-10-14T13:39:39.448Z,100531.58
2022-10-14T13:42:26.831Z,100532.11
2022-10-14T13:45:15.843Z,100535.23
2022-10-14T13:47:58.853Z,100534.91
2022-10-14T13:50:42.284Z,100527.91
2022-10-14T13:53:24.385Z,100532.46
2022-10-14T13:56:32.094Z,100532.38
2022-10-14T13:59:43.159Z,100525.66
2022-10-14T14:02:27.604Z,100531.31
2022-10-14T14:05:16.368Z,100525.55
2022-10-14T14:08:36.826Z,100525.84
2022-10-14T14:11:16.232Z,100523.11
2022-10-14T14:14:05.174Z,100526.98
2022-10-14T14:16:53.753Z,100525.98
2022-10-14T14:19:37.571Z,100526.79
2022-10-14T14:22:31.253Z,100527.37
2022-10-14T14:25:50.597Z,100529.33
2022-10-14T14:28:31.651Z,100534.09
2022-10-14T14:31:19.759Z,100529.04
2022-10-14T14:34:01.729Z,100530.29
2022-10-14T14:36:51.174Z,100528.52
2022-10-14T14:39:33.815Z,100522.92
2022-10-14T14:42:15.609Z,100523.57
2022-10-14T14:45:01.569Z,100524.01
2022-10-14T14:47:44.275Z,100526.50
2022-10-14T14:50:34.235Z,100524.80
2022-10-14T14:53:27.460Z,100521.38
2022-10-14T14:56:16.024Z,100524.60
2022-10-14T14:59:19.718Z,100524.69
2022-10-14T15:02:03.360Z,100522.73
2022-10-14T15:04:45.457Z,100522.98
2022-10-14T15:07:27.350Z,100519.63
2022-10-14T15:10:22.535Z,100520.98
2022-10-14T15:13:04.967Z,100521.60
2022-10-14T15:15:53.695Z,100527.16
2022-10-14T15:18:37.845Z,100528.15
2022-10-14T15:21:20.178Z,100527.66
2022-10-14T15:24:03.534Z,100525.55
2022-10-14T15:26:46.538Z,100521.83
2022-10-14T15:29:28.325Z,100521.14
2022-10-14T15:32:15.460Z,100521.01
2022-10-14T15:35:01.229Z,100520.77
2022-10-14T15:37:43.777Z,100518.39
2022-10-14T15:40:29.066Z,100519.19
2022-10-14T15:43:17.733Z,100516.29
2022-10-14T15:46:19.785Z,100514.20
2022-10-14T15:49:03.370Z,100514.34
2022-10-14T15:51:45.072Z,100513.86
2022-10-14T15:54:28.666Z,100514.55
2022-10-14T15:57:13.960Z,100514.65
2022-10-14T16:00:00.273Z,100516.11
2022-10-14T16:02:43.925Z,100516.20
2022-10-14T16:05:29.256Z,100514.12
2022-10-14T16:08:14.254Z,100512.06
2022-10-14T16:10:57.688Z,100512.51
2022-10-14T16:13:39.377Z,100509.75
2022-10-14T16:16:31.003Z,100507.30
2022-10-14T16:19:12.960Z,100508.52
2022-10-14T16:21:54.792Z,100506.45
2022-10-14T16:24:36.690Z,100503.86
2022-10-14T16:27:19.792Z,100506.30
2022-10-14T16:30:01.928Z,100510.31
2022-10-14T16:32:45.347Z,100507.44
2022-10-14T16:35:27.243Z,100502.84
2022-10-14T16:38:12.003Z,100507.24
2022-10-14T16:40:59.224Z,100507.04
2022-10-14T16:43:41.016Z,100506.66
2022-10-14T16:46:43.221Z,100502.99
2022-10-14T16:49:24.982Z,100500.07
2022-10-14T16:52:08.311Z,100496.73
2022-10-14T16:54:49.951Z,100494.94
2022-10-14T16:57:32.408Z,100493.57
2022-10-14T17:00:16.217Z,100490.10
2022-10-14T17:02:57.943Z,100485.36
2022-10-14T17:05:40.009Z,100487.61
2022-10-14T17:08:22.244Z,100482.45
2022-10-14T17:11:11.103Z,100480.10
2022-10-14T17:13:54.471Z,100478.05
2022-10-14T17:16:36.225Z,100475.73
2022-10-14T17:19:18.942Z,100473.58
2022-10-14T17:22:02.270Z,100468.48
2022-10-14T17:24:43.961Z,100468.84
2022-10-14T17:27:26.087Z,100468.06
2022-10-14T17:30:08.573Z,100467.56
2022-10-14T17:32:50.366Z,100472.69
2022-10-14T17:35:33.795Z,100473.12
2022-10-14T17:38:15.487Z,100475.67
2022-10-14T17:41:08.852Z,100475.28
2022-10-14T17:43:51.910Z,100475.45
2022-10-14T17:46:34.283Z,100473.06
2022-10-14T17:49:16.281Z,100473.48
2022-10-14T17:52:04.838Z,100469.48
2022-10-14T17:54:46.629Z,100469.57
2022-10-14T17:57:28.418Z,100467.09
2022-10-14T18:00:11.078Z,100468.05
2022-10-14T18:02:55.999Z,100467.07
2022-10-14T18:05:39.636Z,100465.61
2022-10-14T18:08:21.330Z,100461.92
2022-10-14T18:11:09.954Z,100460.34
2022-10-14T18:13:59.354Z,100456.32
2022-10-14T18:16:43.772Z,100455.20
2022-10-14T18:19:26.122Z,100452.27
2022-10-14T18:22:08.315Z,100447.05
2022-10-14T18:24:49.958Z,100446.71
2022-10-14T18:27:31.596Z,100444.55
2022-10-14T18:30:13.695Z,100441.60
2022-10-14T18:32:56.104Z,100438.39
2022-10-14T18:35:37.898Z,100438.05
2022-10-14T18:38:19.587Z,100437.77
2022-10-14T18:41:03.926Z,100441.68
2022-10-14T18:43:46.349Z,100435.60
2022-10-14T18:46:30.238Z,100440.23
2022-10-14T18:49:12.295Z,100437.63
2022-10-14T18:51:55.341Z,100437.16
2022-10-14T18:54:37.208Z,100437.29
2022-10-14T18:57:18.900Z,100442.48
2022-10-14T19:00:00.692Z,100444.05
2022-10-14T19:02:42.382Z,100441.58
2022-10-14T19:05:24.075Z,100443.77
2022-10-14T19:08:06.120Z,100443.20
2022-10-14T19:10:47.867Z,100446.70
2022-10-14T19:13:29.761Z,100450.53
2022-10-14T19:16:18.298Z,100448.34
2022-10-14T19:19:04.426Z,100442.96
2022-10-14T19:21:49.067Z,100438.05
2022-10-14T19:24:30.860Z,100436.91
2022-10-14T19:27:12.554Z,100435.30
2022-10-14T19:29:54.344Z,100433.51
2022-10-14T19:32:36.035Z,100434.65
2022-10-14T19:38:05.664Z,100429.99
2022-10-14T19:40:47.355Z,100426.06
2022-10-14T19:43:30.312Z,100425.85
2022-10-14T19:46:13.851Z,100424.76
2022-10-14T19:48:58.668Z,100424.12
2022-10-14T19:51:41.187Z,100420.33
2022-10-14T19:54:22.879Z,100421.54
2022-10-14T19:57:04.568Z,100416.98
2022-10-14T19:59:46.360Z,100415.00
2022-10-14T20:02:28.082Z,100413.64
2022-10-14T20:05:09.745Z,100412.89
2022-10-14T20:07:51.534Z,100410.26
2022-10-14T20:10:33.342Z,100404.63
2022-10-14T20:13:15.391Z,100402.19
2022-10-14T20:15:59.319Z,100406.20
2022-10-14T20:18:41.681Z,100404.64
2022-10-14T20:21:23.981Z,100406.67
2022-10-14T20:24:06.083Z,100403.70
2022-10-14T20:26:47.850Z,100404.12
2022-10-14T20:29:29.568Z,100403.06
2022-10-14T20:32:11.462Z,100402.73
2022-10-14T20:34:53.154Z,100406.38
2022-10-14T20:37:34.899Z,100404.17
2022-10-14T20:40:17.049Z,100401.73
2022-10-14T20:42:58.739Z,100401.68
2022-10-14T20:45:40.532Z,100406.30
2022-10-14T20:48:22.222Z,100406.66
2022-10-14T20:51:09.166Z,100407.60
2022-10-14T20:53:58.553Z,100410.11
2022-10-14T20:56:43.783Z,100408.31
2022-10-14T20:59:25.472Z,100408.89
2022-10-14T21:02:16.491Z,100409.11
2022-10-14T21:04:58.172Z,100405.03
2022-10-14T21:07:39.864Z,100407.62
2022-10-14T21:10:21.656Z,100407.30
2022-10-14T21:13:03.348Z,100407.30
2022-10-14T21:15:45.143Z,100406.36
2022-10-14T21:18:27.958Z,100405.70
2022-10-14T21:21:11.627Z,100402.60
2022-10-14T21:23:58.248Z,100400.84
2022-10-14T21:26:41.046Z,100398.58
2022-10-14T21:29:23.325Z,100393.05
2022-10-14T21:32:05.574Z,100388.27
2022-10-14T21:34:47.319Z,100382.75
2022-10-14T21:37:29.010Z,100381.02
2022-10-14T21:40:11.421Z,100379.78
2022-10-14T21:42:53.212Z,100371.98
2022-10-14T21:45:35.441Z,100369.98
2022-10-14T21:48:20.355Z,100366.17
2022-10-14T21:51:06.104Z,100366.52
2022-10-14T21:53:48.577Z,100366.68
2022-10-14T21:56:31.013Z,100365.85
2022-10-14T21:59:13.951Z,100361.35
2022-10-14T22:01:59.692Z,100357.27
2022-10-14T22:04:41.586Z,100363.39
2022-10-14T22:07:24.159Z,100362.02
2022-10-14T22:10:27.329Z,100360.66
2022-10-14T22:13:11.241Z,100359.05
2022-10-14T22:15:54.872Z,100354.85
2022-10-14T22:18:36.664Z,100355.25
2022-10-14T22:21:21.609Z,100351.48
2022-10-14T22:24:04.532Z,100349.73
2022-10-14T22:26:46.346Z,100344.90
2022-10-14T22:29:28.003Z,100346.50
2022-10-14T22:32:09.728Z,100337.55
2022-10-14T22:34:53.857Z,100335.39
2022-10-14T22:37:36.546Z,100339.48
2022-10-14T22:40:18.696Z,100332.78
2022-10-14T22:43:00.485Z,100333.58
2022-10-14T22:45:42.207Z,100331.08
2022-10-14T22:48:29.278Z,100327.63
2022-10-14T22:51:14.085Z,100324.84
2022-10-14T22:53:56.362Z,100327.97
2022-10-14T22:56:39.280Z,100328.65
2022-10-14T22:59:21.079Z,100328.45
2022-10-14T23:02:03.074Z,100328.96
2022-10-14T23:04:45.384Z,100324.48
2022-10-14T23:07:29.424Z,100320.14
2022-10-14T23:10:11.116Z,100320.63
2022-10-14T23:12:54.035Z,100319.61
2022-10-14T23:15:36.878Z,100316.35
2022-10-14T23:18:18.645Z,100318.36
2022-10-14T23:21:08.040Z,100321.98
2022-10-14T23:23:51.721Z,100318.10
2022-10-14T23:26:35.808Z,100315.68
2022-10-14T23:29:17.595Z,100310.64
2022-10-14T23:31:59.390Z,100310.08
2022-10-14T23:34:41.183Z,100305.28
2022-10-14T23:37:23.615Z,100299.86
2022-10-14T23:40:06.713Z,100295.36
2022-10-14T23:42:48.507Z,100298.71
2022-10-14T23:45:30.403Z,100303.48
2022-10-14T23:48:12.093Z,100296.63
2022-10-14T23:50:54.471Z,100293.86
2022-10-14T23:53:36.192Z,100291.83
2022-10-14T23:56:18.498Z,100291.30
2022-10-14T23:59:00.189Z,100288.35
